createdAt,value
2019-05-19T00:00:05.430Z,15
2019-05-19T00:01:02.231Z,15
2019-05-19T00:02:02.547Z,15
2019-05-19T00:03:01.733Z,15
2019-05-19T00:04:01.815Z,10
2019-05-19T00:05:02.785Z,12
2019-05-19T00:06:01.866Z,12
2019-05-19T00:07:02.127Z,12
2019-05-19T00:08:02.690Z,12
2019-05-19T00:09:02.592Z,12
2019-05-19T00:10:02.192Z,14
2019-05-19T00:11:02.082Z,16
2019-05-19T00:12:02.290Z,16
2019-05-19T00:13:02.276Z,16
2019-05-19T00:14:02.508Z,16
2019-05-19T00:15:02.686Z,16
2019-05-19T00:16:02.525Z,10
2019-05-19T00:17:01.847Z,12
2019-05-19T00:18:01.968Z,12
2019-05-19T00:19:02.294Z,12
2019-05-19T00:20:02.430Z,12
2019-05-19T00:21:06.244Z,12
2019-05-19T00:22:01.941Z,13
2019-05-19T00:23:02.228Z,15
2019-05-19T00:24:02.420Z,15
2019-05-19T00:25:02.618Z,15
2019-05-19T00:26:01.897Z,15
2019-05-19T00:27:01.804Z,15
2019-05-19T00:28:02.098Z,12
2019-05-19T00:29:02.348Z,13
2019-05-19T00:30:02.577Z,13
2019-05-19T00:31:01.843Z,13
2019-05-19T00:32:02.068Z,13
2019-05-19T00:33:02.282Z,13
2019-05-19T00:34:02.580Z,11
2019-05-19T00:35:02.312Z,15
2019-05-19T00:36:01.901Z,15
2019-05-19T00:37:02.164Z,15
2019-05-19T00:38:02.394Z,15
2019-05-19T00:39:02.609Z,15
2019-05-19T00:40:01.890Z,14
2019-05-19T00:41:02.092Z,14
2019-05-19T00:42:02.391Z,14
2019-05-19T00:43:02.153Z,14
2019-05-19T00:44:02.437Z,14
2019-05-19T00:45:02.621Z,14
2019-05-19T00:46:01.811Z,15
2019-05-19T00:47:01.813Z,15
2019-05-19T00:48:01.937Z,15
2019-05-19T00:49:02.203Z,15
2019-05-19T00:50:02.584Z,15
2019-05-19T00:51:01.649Z,15
2019-05-19T00:52:01.694Z,10
2019-05-19T00:53:01.907Z,14
2019-05-19T00:54:02.037Z,14
2019-05-19T00:55:02.294Z,14
2019-05-19T00:56:02.486Z,14
2019-05-19T00:57:01.732Z,14
2019-05-19T00:58:02.007Z,13
2019-05-19T00:59:06.828Z,13
2019-05-19T01:00:04.698Z,13
2019-05-19T01:01:02.427Z,13
2019-05-19T01:02:01.733Z,13
2019-05-19T01:03:01.917Z,13
2019-05-19T01:04:02.071Z,14
2019-05-19T01:05:02.244Z,15
2019-05-19T01:06:02.196Z,15
2019-05-19T01:07:02.414Z,15
2019-05-19T01:08:01.663Z,15
2019-05-19T01:09:01.956Z,15
2019-05-19T01:10:02.552Z,11
2019-05-19T01:11:01.685Z,14
2019-05-19T01:12:01.912Z,14
2019-05-19T01:13:02.168Z,14
2019-05-19T01:14:02.383Z,14
2019-05-19T01:15:02.644Z,14
2019-05-19T01:16:02.472Z,13
2019-05-19T01:17:01.853Z,11
2019-05-19T01:18:01.887Z,11
2019-05-19T01:19:02.217Z,11
2019-05-19T01:20:02.504Z,11
2019-05-19T01:21:02.610Z,11
2019-05-19T01:22:01.859Z,10
2019-05-19T01:23:02.037Z,14
2019-05-19T01:24:02.353Z,14
2019-05-19T01:25:02.530Z,14
2019-05-19T01:26:01.741Z,14
2019-05-19T01:27:01.961Z,14
2019-05-19T01:28:02.190Z,11
2019-05-19T01:29:02.426Z,16
2019-05-19T01:30:02.578Z,16
2019-05-19T01:31:01.799Z,16
2019-05-19T01:32:02.004Z,16
2019-05-19T01:33:02.225Z,16
2019-05-19T01:34:02.018Z,13
2019-05-19T01:35:02.199Z,16
2019-05-19T01:36:02.389Z,16
2019-05-19T01:37:02.659Z,16
2019-05-19T01:38:01.767Z,16
2019-05-19T01:39:01.810Z,16
2019-05-19T01:40:02.509Z,14
2019-05-19T01:41:02.239Z,16
2019-05-19T01:42:02.544Z,16
2019-05-19T01:43:01.658Z,16
2019-05-19T01:44:01.913Z,16
2019-05-19T01:45:02.171Z,16
2019-05-19T01:46:02.418Z,13
2019-05-19T01:47:02.559Z,12
2019-05-19T01:48:01.889Z,12
2019-05-19T01:49:01.968Z,12
2019-05-19T01:50:18.855Z,12
2019-05-19T01:51:02.547Z,12
2019-05-19T01:52:01.768Z,11
2019-05-19T01:53:02.069Z,11
2019-05-19T01:54:02.147Z,11
2019-05-19T01:55:02.407Z,11
2019-05-19T01:56:02.662Z,11
2019-05-19T01:57:01.824Z,11
2019-05-19T01:58:01.774Z,11
2019-05-19T01:59:01.979Z,15
2019-05-19T02:00:03.844Z,15
2019-05-19T02:01:02.374Z,15
2019-05-19T02:02:02.620Z,15
2019-05-19T02:03:01.896Z,15
2019-05-19T02:04:02.078Z,7
2019-05-19T02:05:02.438Z,15
2019-05-19T02:06:02.584Z,15
2019-05-19T02:07:01.851Z,15
2019-05-19T02:08:02.104Z,15
2019-05-19T02:09:02.359Z,15
2019-05-19T02:10:03.013Z,14
2019-05-19T02:11:01.818Z,14
2019-05-19T02:12:02.046Z,14
2019-05-19T02:13:05.621Z,14
2019-05-19T02:14:02.538Z,14
2019-05-19T02:15:01.888Z,14
2019-05-19T02:16:02.046Z,14
2019-05-19T02:17:02.410Z,11
2019-05-19T02:18:02.546Z,11
2019-05-19T02:19:01.782Z,11
2019-05-19T02:20:02.194Z,11
2019-05-19T02:21:02.421Z,11
2019-05-19T02:22:02.537Z,13
2019-05-19T02:23:02.519Z,16
2019-05-19T02:24:01.727Z,16
2019-05-19T02:25:01.927Z,16
2019-05-19T02:26:02.162Z,16
2019-05-19T02:27:02.337Z,16
2019-05-19T02:28:02.713Z,13
2019-05-19T02:29:01.861Z,15
2019-05-19T02:30:03.220Z,15
2019-05-19T02:31:02.596Z,15
2019-05-19T02:32:01.749Z,15
2019-05-19T02:33:01.972Z,15
2019-05-19T02:34:02.165Z,13
2019-05-19T02:35:02.377Z,15
2019-05-19T02:36:02.601Z,15
2019-05-19T02:37:01.845Z,15
2019-05-19T02:38:01.962Z,15
2019-05-19T02:39:02.193Z,15
2019-05-19T02:40:02.630Z,14
2019-05-19T02:41:01.857Z,16
2019-05-19T02:42:02.018Z,16
2019-05-19T02:43:02.303Z,16
2019-05-19T02:44:02.545Z,16
2019-05-19T02:45:01.816Z,16
2019-05-19T02:46:02.135Z,14
2019-05-19T02:47:02.352Z,12
2019-05-19T02:48:02.504Z,12
2019-05-19T02:49:01.765Z,12
2019-05-19T02:50:02.110Z,12
2019-05-19T02:51:02.268Z,12
2019-05-19T02:52:02.401Z,11
2019-05-19T02:53:02.660Z,17
2019-05-19T02:54:01.888Z,17
2019-05-19T02:55:02.181Z,17
2019-05-19T02:56:01.688Z,17
2019-05-19T02:57:01.941Z,17
2019-05-19T02:58:02.127Z,13
2019-05-19T02:59:02.344Z,16
2019-05-19T03:00:02.612Z,16
2019-05-19T03:01:01.842Z,16
2019-05-19T03:02:02.017Z,16
2019-05-19T03:03:02.298Z,16
2019-05-19T03:04:02.400Z,13
2019-05-19T03:05:02.651Z,17
2019-05-19T03:06:01.903Z,17
2019-05-19T03:07:02.161Z,17
2019-05-19T03:08:02.145Z,17
2019-05-19T03:09:02.348Z,17
2019-05-19T03:10:02.411Z,11
2019-05-19T03:11:02.628Z,12
2019-05-19T03:12:01.756Z,12
2019-05-19T03:13:01.967Z,12
2019-05-19T03:14:02.149Z,12
2019-05-19T03:15:02.514Z,12
2019-05-19T03:16:02.609Z,13
2019-05-19T03:17:01.870Z,14
2019-05-19T03:18:02.142Z,14
2019-05-19T03:19:02.330Z,14
2019-05-19T03:20:02.725Z,14
2019-05-19T03:21:12.332Z,14
2019-05-19T03:22:01.979Z,11
2019-05-19T03:23:02.211Z,11
2019-05-19T03:24:02.446Z,11
2019-05-19T03:25:01.841Z,11
2019-05-19T03:26:02.084Z,11
2019-05-19T03:27:02.184Z,11
2019-05-19T03:28:02.500Z,11
2019-05-19T03:29:02.619Z,14
2019-05-19T03:30:02.151Z,14
2019-05-19T03:31:02.246Z,14
2019-05-19T03:32:02.569Z,14
2019-05-19T03:33:02.431Z,14
2019-05-19T03:34:01.662Z,13
2019-05-19T03:35:02.114Z,11
2019-05-19T03:36:02.112Z,11
2019-05-19T03:37:02.123Z,11
2019-05-19T03:38:02.345Z,11
2019-05-19T03:39:02.581Z,11
2019-05-19T03:40:01.966Z,11
2019-05-19T03:41:02.067Z,14
2019-05-19T03:42:01.884Z,14
2019-05-19T03:43:02.090Z,14
2019-05-19T03:44:02.246Z,14
2019-05-19T03:45:02.488Z,14
2019-05-19T03:46:01.713Z,11
2019-05-19T03:47:01.958Z,15
2019-05-19T03:48:02.122Z,15
2019-05-19T03:49:02.336Z,15
2019-05-19T03:50:02.629Z,15
2019-05-19T03:51:01.830Z,15
2019-05-19T03:52:02.024Z,9
2019-05-19T03:53:01.929Z,15
2019-05-19T03:54:02.297Z,15
2019-05-19T03:55:02.459Z,15
2019-05-19T03:56:02.582Z,15
2019-05-19T03:57:01.832Z,15
2019-05-19T03:58:02.042Z,10
2019-05-19T03:59:02.392Z,15
2019-05-19T04:00:04.487Z,15
2019-05-19T04:01:02.374Z,15
2019-05-19T04:02:02.505Z,15
2019-05-19T04:03:01.826Z,15
2019-05-19T04:04:01.988Z,10
2019-05-19T04:05:02.473Z,11
2019-05-19T04:06:02.454Z,11
2019-05-19T04:07:01.633Z,11
2019-05-19T04:08:01.827Z,11
2019-05-19T04:09:02.047Z,11
2019-05-19T04:10:02.299Z,11
2019-05-19T04:11:02.561Z,15
2019-05-19T04:12:01.700Z,15
2019-05-19T04:13:02.049Z,15
2019-05-19T04:14:02.126Z,15
2019-05-19T04:15:02.438Z,15
2019-05-19T04:16:02.569Z,10
2019-05-19T04:17:01.665Z,14
2019-05-19T04:18:01.960Z,14
2019-05-19T04:19:01.871Z,14
2019-05-19T04:20:02.192Z,14
2019-05-19T04:21:02.416Z,14
2019-05-19T04:22:02.519Z,9
2019-05-19T04:23:01.851Z,16
2019-05-19T04:24:02.022Z,16
2019-05-19T04:25:02.420Z,16
2019-05-19T04:26:02.499Z,16
2019-05-19T04:27:01.693Z,16
2019-05-19T04:28:01.944Z,9
2019-05-19T04:29:02.175Z,13
2019-05-19T04:30:02.444Z,13
2019-05-19T04:31:01.765Z,13
2019-05-19T04:32:01.929Z,13
2019-05-19T04:33:02.131Z,13
2019-05-19T04:34:02.369Z,10
2019-05-19T04:35:01.750Z,14
2019-05-19T04:36:01.980Z,14
2019-05-19T04:37:02.277Z,14
2019-05-19T04:38:02.499Z,14
2019-05-19T04:39:01.666Z,14
2019-05-19T04:40:01.935Z,10
2019-05-19T04:41:02.136Z,14
2019-05-19T04:42:02.415Z,14
2019-05-19T04:43:02.624Z,14
2019-05-19T04:44:01.744Z,14
2019-05-19T04:45:02.045Z,14
2019-05-19T04:46:02.288Z,11
2019-05-19T04:47:02.576Z,13
2019-05-19T04:48:01.817Z,13
2019-05-19T04:49:02.147Z,13
2019-05-19T04:50:02.430Z,13
2019-05-19T04:51:01.682Z,13
2019-05-19T04:52:07.714Z,10
2019-05-19T04:53:02.553Z,12
2019-05-19T04:54:01.867Z,12
2019-05-19T04:55:02.075Z,12
2019-05-19T04:56:02.259Z,12
2019-05-19T04:57:02.508Z,12
2019-05-19T04:58:01.681Z,9
2019-05-19T04:59:02.068Z,15
2019-05-19T05:00:05.336Z,15
2019-05-19T05:01:02.153Z,15
2019-05-19T05:02:02.338Z,15
2019-05-19T05:03:02.601Z,15
2019-05-19T05:04:01.874Z,10
2019-05-19T05:05:02.240Z,12
2019-05-19T05:06:02.409Z,12
2019-05-19T05:07:02.587Z,12
2019-05-19T05:08:01.886Z,12
2019-05-19T05:09:02.097Z,12
2019-05-19T05:10:02.419Z,11
2019-05-19T05:11:02.654Z,11
2019-05-19T05:12:01.830Z,11
2019-05-19T05:13:02.034Z,11
2019-05-19T05:14:02.224Z,11
2019-05-19T05:15:02.561Z,11
2019-05-19T05:16:02.347Z,9
2019-05-19T05:17:02.424Z,14
2019-05-19T05:18:01.745Z,14
2019-05-19T05:19:02.641Z,14
2019-05-19T05:20:01.846Z,14
2019-05-19T05:21:02.044Z,14
2019-05-19T05:22:02.273Z,7
2019-05-19T05:23:02.515Z,14
2019-05-19T05:24:01.699Z,14
2019-05-19T05:25:01.751Z,14
2019-05-19T05:26:01.916Z,14
2019-05-19T05:27:02.145Z,14
2019-05-19T05:28:02.304Z,9
2019-05-19T05:29:02.490Z,12
2019-05-19T05:30:02.731Z,12
2019-05-19T05:31:01.827Z,12
2019-05-19T05:32:05.603Z,12
2019-05-19T05:33:02.246Z,12
2019-05-19T05:34:02.411Z,13
2019-05-19T05:35:01.769Z,15
2019-05-19T05:36:01.980Z,15
2019-05-19T05:37:02.189Z,15
2019-05-19T05:38:02.354Z,15
2019-05-19T05:39:02.493Z,15
2019-05-19T05:40:01.817Z,10
2019-05-19T05:41:02.086Z,11
2019-05-19T05:42:02.311Z,11
2019-05-19T05:43:02.070Z,11
2019-05-19T05:44:02.163Z,11
2019-05-19T05:45:02.407Z,11
2019-05-19T05:46:01.771Z,10
2019-05-19T05:47:01.921Z,12
2019-05-19T05:48:02.306Z,12
2019-05-19T05:49:02.300Z,12
2019-05-19T05:50:02.544Z,12
2019-05-19T05:51:01.804Z,12
2019-05-19T05:52:02.001Z,10
2019-05-19T05:53:02.232Z,14
2019-05-19T05:54:02.380Z,14
2019-05-19T05:55:02.671Z,14
2019-05-19T05:56:02.679Z,14
2019-05-19T05:57:01.895Z,14
2019-05-19T05:58:02.037Z,10
2019-05-19T05:59:02.202Z,11
2019-05-19T06:00:04.067Z,11
2019-05-19T06:01:01.912Z,11
2019-05-19T06:02:02.112Z,11
2019-05-19T06:03:02.555Z,11
2019-05-19T06:04:02.580Z,13
2019-05-19T06:05:02.600Z,12
2019-05-19T06:06:01.821Z,12
2019-05-19T06:07:02.123Z,12
2019-05-19T06:08:02.353Z,12
2019-05-19T06:09:02.540Z,12
2019-05-19T06:10:01.819Z,11
2019-05-19T06:11:02.041Z,12
2019-05-19T06:12:02.304Z,12
2019-05-19T06:13:02.589Z,12
2019-05-19T06:14:01.668Z,12
2019-05-19T06:15:02.013Z,12
2019-05-19T06:16:02.221Z,13
2019-05-19T06:17:02.551Z,11
2019-05-19T06:18:01.811Z,11
2019-05-19T06:19:02.055Z,11
2019-05-19T06:20:04.178Z,11
2019-05-19T06:21:01.868Z,11
2019-05-19T06:22:02.068Z,11
2019-05-19T06:23:01.848Z,11
2019-05-19T06:24:02.086Z,11
2019-05-19T06:25:02.536Z,11
2019-05-19T06:26:02.629Z,11
2019-05-19T06:27:01.824Z,11
2019-05-19T06:28:02.057Z,13
2019-05-19T06:29:02.271Z,14
2019-05-19T06:30:02.509Z,14
2019-05-19T06:31:01.718Z,14
2019-05-19T06:32:01.933Z,14
2019-05-19T06:33:02.121Z,14
2019-05-19T06:34:02.393Z,13
2019-05-19T06:35:03.224Z,15
2019-05-19T06:36:02.554Z,15
2019-05-19T06:37:01.787Z,15
2019-05-19T06:38:02.533Z,15
2019-05-19T06:39:02.212Z,15
2019-05-19T06:40:02.450Z,6
2019-05-19T06:41:01.722Z,18
2019-05-19T06:42:01.917Z,18
2019-05-19T06:43:02.187Z,18
2019-05-19T06:44:03.836Z,18
2019-05-19T06:45:01.806Z,18
2019-05-19T06:46:02.633Z,13
2019-05-19T06:47:01.859Z,14
2019-05-19T06:48:02.028Z,14
2019-05-19T06:49:02.318Z,14
2019-05-19T06:50:02.690Z,14
2019-05-19T06:51:01.757Z,14
2019-05-19T06:52:01.931Z,10
2019-05-19T06:53:14.946Z,16
2019-05-19T06:54:02.421Z,16
2019-05-19T06:55:01.694Z,16
2019-05-19T06:56:01.897Z,16
2019-05-19T06:57:01.766Z,16
2019-05-19T06:58:02.085Z,13
2019-05-19T06:59:02.491Z,14
2019-05-19T07:00:04.758Z,14
2019-05-19T07:01:02.607Z,14
2019-05-19T07:02:01.813Z,14
2019-05-19T07:03:02.043Z,14
2019-05-19T07:04:02.344Z,9
2019-05-19T07:05:02.691Z,11
2019-05-19T07:06:01.714Z,11
2019-05-19T07:07:02.167Z,11
2019-05-19T07:08:02.141Z,11
2019-05-19T07:09:02.337Z,11
2019-05-19T07:10:02.392Z,10
2019-05-19T07:11:02.465Z,14
2019-05-19T07:12:01.676Z,14
2019-05-19T07:13:01.925Z,14
2019-05-19T07:14:03.453Z,14
2019-05-19T07:15:02.422Z,14
2019-05-19T07:16:02.551Z,10
2019-05-19T07:17:01.796Z,13
2019-05-19T07:18:01.895Z,13
2019-05-19T07:19:01.788Z,13
2019-05-19T07:20:02.102Z,13
2019-05-19T07:21:02.173Z,13
2019-05-19T07:22:02.428Z,9
2019-05-19T07:23:02.565Z,14
2019-05-19T07:24:01.778Z,14
2019-05-19T07:25:02.005Z,14
2019-05-19T07:26:02.196Z,14
2019-05-19T07:27:02.518Z,14
2019-05-19T07:28:01.622Z,11
2019-05-19T07:29:01.999Z,11
2019-05-19T07:30:02.377Z,11
2019-05-19T07:31:01.692Z,11
2019-05-19T07:32:01.832Z,11
2019-05-19T07:33:02.041Z,11
2019-05-19T07:34:02.429Z,9
2019-05-19T07:35:02.463Z,14
2019-05-19T07:36:01.623Z,14
2019-05-19T07:37:01.774Z,14
2019-05-19T07:38:02.022Z,14
2019-05-19T07:39:02.191Z,14
2019-05-19T07:40:02.568Z,13
2019-05-19T07:41:02.428Z,14
2019-05-19T07:42:02.577Z,14
2019-05-19T07:43:01.801Z,14
2019-05-19T07:44:01.942Z,14
2019-05-19T07:45:02.327Z,14
2019-05-19T07:46:02.500Z,10
2019-05-19T07:47:01.651Z,12
2019-05-19T07:48:01.888Z,12
2019-05-19T07:49:02.073Z,12
2019-05-19T07:50:02.279Z,12
2019-05-19T07:51:02.841Z,12
2019-05-19T07:52:01.632Z,11
2019-05-19T07:53:01.921Z,12
2019-05-19T07:54:02.117Z,12
2019-05-19T07:55:02.120Z,12
2019-05-19T07:56:02.306Z,12
2019-05-19T07:57:02.475Z,12
2019-05-19T07:58:01.680Z,11
2019-05-19T07:59:01.873Z,16
2019-05-19T08:00:04.469Z,16
2019-05-19T08:01:02.160Z,16
2019-05-19T08:02:02.319Z,16
2019-05-19T08:03:02.506Z,16
2019-05-19T08:04:01.788Z,9
2019-05-19T08:05:02.191Z,10
2019-05-19T08:06:02.918Z,10
2019-05-19T08:07:02.481Z,10
2019-05-19T08:08:01.711Z,10
2019-05-19T08:09:01.888Z,10
2019-05-19T08:10:02.304Z,7
2019-05-19T08:11:02.395Z,12
2019-05-19T08:12:02.161Z,12
2019-05-19T08:13:02.384Z,12
2019-05-19T08:14:02.469Z,12
2019-05-19T08:15:01.970Z,12
2019-05-19T08:16:01.884Z,10
2019-05-19T08:17:02.104Z,12
2019-05-19T08:18:01.920Z,12
2019-05-19T08:19:01.795Z,12
2019-05-19T08:20:02.007Z,12
2019-05-19T08:21:02.178Z,12
2019-05-19T08:22:02.490Z,13
2019-05-19T08:23:02.726Z,12
2019-05-19T08:24:02.013Z,12
2019-05-19T08:25:02.268Z,12
2019-05-19T08:26:02.437Z,12
2019-05-19T08:27:02.690Z,12
2019-05-19T08:28:09.364Z,13
2019-05-19T08:29:02.025Z,12
2019-05-19T08:30:02.293Z,12
2019-05-19T08:31:02.177Z,12
2019-05-19T08:32:02.327Z,12
2019-05-19T08:33:02.721Z,12
2019-05-19T08:34:01.752Z,10
2019-05-19T08:35:04.727Z,15
2019-05-19T08:36:02.054Z,15
2019-05-19T08:37:02.365Z,15
2019-05-19T08:38:02.038Z,15
2019-05-19T08:39:02.174Z,15
2019-05-19T08:40:02.398Z,7
2019-05-19T08:41:02.545Z,14
2019-05-19T08:42:01.705Z,14
2019-05-19T08:43:01.929Z,14
2019-05-19T08:44:02.193Z,14
2019-05-19T08:45:02.376Z,14
2019-05-19T08:46:02.653Z,14
2019-05-19T08:47:01.821Z,12
2019-05-19T08:48:02.067Z,12
2019-05-19T08:49:02.388Z,12
2019-05-19T08:50:02.629Z,12
2019-05-19T08:51:01.825Z,12
2019-05-19T08:52:02.601Z,14
2019-05-19T08:53:01.808Z,12
2019-05-19T08:54:18.809Z,12
2019-05-19T08:55:02.284Z,12
2019-05-19T08:56:02.485Z,12
2019-05-19T08:57:01.694Z,12
2019-05-19T08:58:02.058Z,13
2019-05-19T08:59:02.255Z,15
2019-05-19T09:00:05.319Z,15
2019-05-19T09:01:02.092Z,15
2019-05-19T09:02:02.434Z,15
2019-05-19T09:03:03.450Z,15
2019-05-19T09:04:01.773Z,14
2019-05-19T09:05:02.453Z,16
2019-05-19T09:06:02.633Z,16
2019-05-19T09:07:01.838Z,16
2019-05-19T09:08:02.043Z,16
2019-05-19T09:09:02.289Z,16
2019-05-19T09:10:02.584Z,10
2019-05-19T09:11:01.793Z,17
2019-05-19T09:12:01.955Z,17
2019-05-19T09:13:01.896Z,17
2019-05-19T09:14:01.919Z,17
2019-05-19T09:15:02.241Z,17
2019-05-19T09:16:02.319Z,9
2019-05-19T09:17:02.774Z,16
2019-05-19T09:18:01.921Z,16
2019-05-19T09:19:02.319Z,16
2019-05-19T09:20:03.274Z,16
2019-05-19T09:21:01.683Z,16
2019-05-19T09:22:02.041Z,16
2019-05-19T09:23:02.064Z,17
2019-05-19T09:24:02.261Z,17
2019-05-19T09:25:02.704Z,17
2019-05-19T09:26:01.820Z,17
2019-05-19T09:27:02.102Z,17
2019-05-19T09:28:02.291Z,11
2019-05-19T09:29:02.188Z,17
2019-05-19T09:30:02.471Z,17
2019-05-19T09:31:02.620Z,17
2019-05-19T09:32:02.073Z,17
2019-05-19T09:33:02.121Z,17
2019-05-19T09:34:02.317Z,13
2019-05-19T09:35:02.586Z,14
2019-05-19T09:36:01.694Z,14
2019-05-19T09:37:02.011Z,14
2019-05-19T09:38:02.088Z,14
2019-05-19T09:39:02.376Z,14
2019-05-19T09:40:02.663Z,14
2019-05-19T09:41:01.782Z,17
2019-05-19T09:42:02.021Z,17
2019-05-19T09:43:02.224Z,17
2019-05-19T09:44:02.384Z,17
2019-05-19T09:45:01.687Z,17
2019-05-19T09:46:01.959Z,14
2019-05-19T09:47:02.152Z,15
2019-05-19T09:48:02.334Z,15
2019-05-19T09:49:02.550Z,15
2019-05-19T09:50:02.567Z,15
2019-05-19T09:51:01.881Z,15
2019-05-19T09:52:02.235Z,10
2019-05-19T09:53:02.268Z,12
2019-05-19T09:54:02.457Z,12
2019-05-19T09:55:02.671Z,12
2019-05-19T09:56:01.906Z,12
2019-05-19T09:57:02.195Z,12
2019-05-19T09:58:02.267Z,14
2019-05-19T09:59:02.325Z,15
2019-05-19T10:00:04.218Z,15
2019-05-19T10:01:01.979Z,15
2019-05-19T10:02:02.173Z,15
2019-05-19T10:03:02.397Z,15
2019-05-19T10:04:02.582Z,15
2019-05-19T10:05:01.924Z,16
2019-05-19T10:06:02.237Z,16
2019-05-19T10:07:04.248Z,16
2019-05-19T10:08:02.496Z,16
2019-05-19T10:09:01.710Z,16
2019-05-19T10:10:02.160Z,16
2019-05-19T10:11:02.245Z,17
2019-05-19T10:12:02.343Z,17
2019-05-19T10:13:02.529Z,17
2019-05-19T10:14:01.931Z,17
2019-05-19T10:15:03.421Z,17
2019-05-19T10:16:02.302Z,9
2019-05-19T10:17:02.597Z,14
2019-05-19T10:18:01.834Z,14
2019-05-19T10:19:01.986Z,14
2019-05-19T10:20:02.431Z,14
2019-05-19T10:21:02.489Z,14
2019-05-19T10:22:01.799Z,14
2019-05-19T10:23:02.108Z,17
2019-05-19T10:24:02.405Z,17
2019-05-19T10:25:22.854Z,17
2019-05-19T10:26:01.819Z,17
2019-05-19T10:27:01.790Z,17
2019-05-19T10:28:02.079Z,12
2019-05-19T10:29:02.280Z,17
2019-05-19T10:30:02.608Z,17
2019-05-19T10:31:01.905Z,17
2019-05-19T10:32:02.085Z,17
2019-05-19T10:33:02.312Z,17
2019-05-19T10:34:02.580Z,16
2019-05-19T10:35:02.241Z,13
2019-05-19T10:36:02.094Z,13
2019-05-19T10:37:02.255Z,13
2019-05-19T10:38:02.505Z,13
2019-05-19T10:39:01.740Z,13
2019-05-19T10:40:01.990Z,15
2019-05-19T10:41:02.174Z,16
2019-05-19T10:42:03.263Z,16
2019-05-19T10:43:02.699Z,16
2019-05-19T10:44:01.810Z,16
2019-05-19T10:45:02.043Z,16
2019-05-19T10:46:02.014Z,15
2019-05-19T10:47:02.042Z,15
2019-05-19T10:48:02.169Z,15
2019-05-19T10:49:02.377Z,15
2019-05-19T10:50:02.665Z,15
2019-05-19T10:51:01.870Z,15
2019-05-19T10:52:01.933Z,16
2019-05-19T10:53:02.671Z,15
2019-05-19T10:54:02.022Z,15
2019-05-19T10:55:02.384Z,15
2019-05-19T10:56:02.534Z,15
2019-05-19T10:57:01.845Z,15
2019-05-19T10:58:02.074Z,12
2019-05-19T10:59:02.308Z,17
2019-05-19T11:00:04.590Z,17
2019-05-19T11:01:02.434Z,17
2019-05-19T11:02:01.707Z,17
2019-05-19T11:03:02.021Z,17
2019-05-19T11:04:02.207Z,12
2019-05-19T11:05:02.498Z,17
2019-05-19T11:06:01.957Z,17
2019-05-19T11:07:02.005Z,17
2019-05-19T11:08:02.302Z,17
2019-05-19T11:09:02.407Z,17
2019-05-19T11:10:02.699Z,17
2019-05-19T11:11:01.913Z,20
2019-05-19T11:12:02.047Z,20
2019-05-19T11:13:02.345Z,20
2019-05-19T11:14:02.494Z,20
2019-05-19T11:15:01.858Z,20
2019-05-19T11:16:01.914Z,13
2019-05-19T11:17:02.233Z,16
2019-05-19T11:18:02.382Z,16
2019-05-19T11:19:02.629Z,16
2019-05-19T11:20:02.385Z,16
2019-05-19T11:21:02.124Z,16
2019-05-19T11:22:02.015Z,15
2019-05-19T11:23:02.079Z,20
2019-05-19T11:24:02.081Z,20
2019-05-19T11:25:02.378Z,20
2019-05-19T11:26:02.522Z,20
2019-05-19T11:27:01.790Z,20
2019-05-19T11:28:01.989Z,17
2019-05-19T11:29:02.260Z,18
2019-05-19T11:30:02.461Z,18
2019-05-19T11:31:01.667Z,18
2019-05-19T11:32:02.020Z,18
2019-05-19T11:33:02.163Z,18
2019-05-19T11:34:02.431Z,14
2019-05-19T11:35:02.683Z,20
2019-05-19T11:36:01.918Z,20
2019-05-19T11:37:02.114Z,20
2019-05-19T11:38:02.334Z,20
2019-05-19T11:39:02.566Z,20
2019-05-19T11:40:01.713Z,16
2019-05-19T11:41:02.005Z,14
2019-05-19T11:42:01.668Z,14
2019-05-19T11:43:02.102Z,14
2019-05-19T11:44:02.107Z,14
2019-05-19T11:45:02.390Z,14
2019-05-19T11:46:02.595Z,16
2019-05-19T11:47:01.828Z,18
2019-05-19T11:48:02.087Z,18
2019-05-19T11:49:02.346Z,18
2019-05-19T11:50:02.617Z,18
2019-05-19T11:51:01.927Z,18
2019-05-19T11:52:02.074Z,15
2019-05-19T11:53:02.324Z,21
2019-05-19T11:54:02.638Z,21
2019-05-19T11:55:01.993Z,21
2019-05-19T11:56:11.341Z,21
2019-05-19T11:57:02.424Z,21
2019-05-19T11:58:02.616Z,20
2019-05-19T11:59:01.698Z,18
2019-05-19T12:00:06.523Z,18
2019-05-19T12:01:02.300Z,18
2019-05-19T12:02:02.424Z,18
2019-05-19T12:03:02.579Z,18
2019-05-19T12:04:01.826Z,15
2019-05-19T12:05:02.325Z,22
2019-05-19T12:06:02.423Z,22
2019-05-19T12:07:01.682Z,22
2019-05-19T12:08:01.900Z,22
2019-05-19T12:09:02.177Z,22
2019-05-19T12:10:02.469Z,16
2019-05-19T12:11:01.811Z,17
2019-05-19T12:12:01.991Z,17
2019-05-19T12:13:02.145Z,17
2019-05-19T12:14:02.379Z,17
2019-05-19T12:15:02.674Z,17
2019-05-19T12:16:01.931Z,15
2019-05-19T12:17:02.230Z,20
2019-05-19T12:18:02.249Z,20
2019-05-19T12:19:02.587Z,20
2019-05-19T12:20:01.816Z,20
2019-05-19T12:21:02.001Z,20
2019-05-19T12:22:02.258Z,15
2019-05-19T12:23:02.420Z,22
2019-05-19T12:24:01.619Z,22
2019-05-19T12:25:01.996Z,22
2019-05-19T12:26:02.204Z,22
2019-05-19T12:27:02.349Z,22
2019-05-19T12:28:02.654Z,14
2019-05-19T12:29:01.755Z,17
2019-05-19T12:30:02.101Z,17
2019-05-19T12:31:02.216Z,17
2019-05-19T12:32:02.361Z,17
2019-05-19T12:33:02.328Z,17
2019-05-19T12:34:02.289Z,11
2019-05-19T12:35:02.633Z,20
2019-05-19T12:36:01.804Z,20
2019-05-19T12:37:02.105Z,20
2019-05-19T12:38:02.297Z,20
2019-05-19T12:39:02.608Z,20
2019-05-19T12:40:01.836Z,15
2019-05-19T12:41:02.005Z,17
2019-05-19T12:42:02.245Z,17
2019-05-19T12:43:02.501Z,17
2019-05-19T12:44:01.654Z,17
2019-05-19T12:45:02.036Z,17
2019-05-19T12:46:02.205Z,16
2019-05-19T12:47:02.440Z,16
2019-05-19T12:48:02.473Z,16
2019-05-19T12:49:01.729Z,16
2019-05-19T12:50:02.664Z,16
2019-05-19T12:51:02.196Z,16
2019-05-19T12:52:02.518Z,19
2019-05-19T12:53:02.663Z,17
2019-05-19T12:54:01.981Z,17
2019-05-19T12:55:02.209Z,17
2019-05-19T12:56:02.282Z,17
2019-05-19T12:57:02.489Z,17
2019-05-19T12:58:01.745Z,15
2019-05-19T12:59:02.040Z,18
2019-05-19T13:00:06.320Z,18
2019-05-19T13:01:02.244Z,18
2019-05-19T13:02:02.370Z,18
2019-05-19T13:03:02.694Z,18
2019-05-19T13:04:01.808Z,12
2019-05-19T13:05:06.576Z,20
2019-05-19T13:06:02.225Z,20
2019-05-19T13:07:02.427Z,20
2019-05-19T13:08:01.829Z,20
2019-05-19T13:09:01.934Z,20
2019-05-19T13:10:02.307Z,12
2019-05-19T13:11:02.408Z,17
2019-05-19T13:12:01.672Z,17
2019-05-19T13:13:02.035Z,17
2019-05-19T13:14:02.134Z,17
2019-05-19T13:15:02.417Z,17
2019-05-19T13:16:02.664Z,16
2019-05-19T13:17:01.844Z,16
2019-05-19T13:18:02.167Z,16
2019-05-19T13:19:02.412Z,16
2019-05-19T13:20:02.882Z,16
2019-05-19T13:21:01.873Z,16
2019-05-19T13:22:02.071Z,17
2019-05-19T13:23:02.308Z,18
2019-05-19T13:24:02.592Z,18
2019-05-19T13:25:01.781Z,18
2019-05-19T13:26:01.924Z,18
2019-05-19T13:27:02.095Z,18
2019-05-19T13:28:02.285Z,17
2019-05-19T13:29:01.689Z,22
2019-05-19T13:30:01.886Z,22
2019-05-19T13:31:02.138Z,22
2019-05-19T13:32:02.333Z,22
2019-05-19T13:33:02.553Z,22
2019-05-19T13:34:01.700Z,20
2019-05-19T13:35:02.010Z,20
2019-05-19T13:36:02.296Z,20
2019-05-19T13:37:02.423Z,20
2019-05-19T13:38:02.600Z,20
2019-05-19T13:39:01.760Z,20
2019-05-19T13:40:02.566Z,14
2019-05-19T13:41:02.307Z,18
2019-05-19T13:42:02.567Z,18
2019-05-19T13:43:01.819Z,18
2019-05-19T13:44:02.021Z,18
2019-05-19T13:45:02.206Z,18
2019-05-19T13:46:02.421Z,18
2019-05-19T13:47:01.708Z,24
2019-05-19T13:48:01.949Z,24
2019-05-19T13:49:02.251Z,24
2019-05-19T13:50:02.474Z,24
2019-05-19T13:51:01.851Z,24
2019-05-19T13:52:01.992Z,15
2019-05-19T13:53:02.264Z,16
2019-05-19T13:54:02.517Z,16
2019-05-19T13:55:01.849Z,16
2019-05-19T13:56:02.021Z,16
2019-05-19T13:57:13.029Z,16
2019-05-19T13:58:04.022Z,19
2019-05-19T13:59:01.744Z,21
2019-05-19T14:00:04.644Z,21
2019-05-19T14:01:02.456Z,21
2019-05-19T14:02:01.787Z,21
2019-05-19T14:03:01.966Z,21
2019-05-19T14:04:02.183Z,15
2019-05-19T14:05:02.524Z,18
2019-05-19T14:06:02.597Z,18
2019-05-19T14:07:01.800Z,18
2019-05-19T14:08:02.033Z,18
2019-05-19T14:09:02.493Z,18
2019-05-19T14:10:02.616Z,15
2019-05-19T14:11:01.849Z,22
2019-05-19T14:12:02.002Z,22
2019-05-19T14:13:02.180Z,22
2019-05-19T14:14:02.396Z,22
2019-05-19T14:15:04.676Z,22
2019-05-19T14:16:01.820Z,15